Time;durP1;ratioP1;P1;durP2;ratioP2;P2;SDS_P1;SDS_P2;PMS_P1;PMS_P2;Temp;Humidity;BMP_temperature;BMP_pressure;BME280_temperature;BME280_humidity;BME280_pressure;Samples;Min_cycle;Max_cycle;Signal;HPM_P1;HPM_P2
2023/12/12 00:01:25;;;;;;;5.93;4.40;;;;;;;5.06;100.00;96233.53;4975991;28;20057;-74
2023/12/12 00:03:50;;;;;;;5.18;3.13;;;;;;;5.05;100.00;96242.00;4992270;28;20053;-73
2023/12/12 00:06:16;;;;;;;6.47;4.10;;;;;;;5.11;100.00;96240.63;4996068;28;20046;-73
2023/12/12 00:08:42;;;;;;;6.90;4.72;;;;;;;5.15;100.00;96239.63;4981090;28;20038;-73
2023/12/12 00:11:08;;;;;;;5.55;4.10;;;;;;;5.21;100.00;96232.03;4976248;28;20428;-72
2023/12/12 00:13:33;;;;;;;6.70;4.38;;;;;;;5.17;100.00;96239.28;4981610;28;20476;-75
2023/12/12 00:15:58;;;;;;;5.40;2.97;;;;;;;5.16;100.00;96243.91;4981906;28;20116;-75
2023/12/12 00:18:24;;;;;;;7.55;4.80;;;;;;;5.16;100.00;96243.91;4975710;28;20046;-73
2023/12/12 00:20:50;;;;;;;3.60;3.03;;;;;;;5.16;100.00;96246.63;4983060;28;20122;-73
2023/12/12 00:23:15;;;;;;;6.68;4.40;;;;;;;5.26;100.00;96250.78;4981653;28;20042;-75
2023/12/12 00:25:41;;;;;;;7.40;4.38;;;;;;;5.31;100.00;96244.31;4987579;28;20038;-76
2023/12/12 00:28:07;;;;;;;8.45;2.60;;;;;;;5.23;100.00;96242.53;4982467;28;20085;-74
2023/12/12 00:30:32;;;;;;;4.40;3.05;;;;;;;5.24;100.00;96244.91;4982338;28;20038;-73
2023/12/12 00:32:57;;;;;;;6.13;3.70;;;;;;;5.23;100.00;96246.03;4982988;28;20068;-73
2023/12/12 00:35:23;;;;;;;2.88;2.10;;;;;;;5.39;100.00;96231.75;4976214;28;20470;-78
2023/12/12 00:37:48;;;;;;;3.47;2.00;;;;;;;5.41;100.00;96226.78;4966249;28;20122;-73
2023/12/12 00:40:13;;;;;;;3.83;1.98;;;;;;;5.48;100.00;96233.19;4975536;28;20034;-73
2023/12/12 00:42:39;;;;;;;3.33;2.10;;;;;;;5.46;100.00;96231.97;4980216;28;20047;-73
2023/12/12 00:45:06;;;;;;;3.70;2.33;;;;;;;5.35;100.00;96227.00;4977167;28;20034;-74
2023/12/12 00:47:31;;;;;;;5.70;2.30;;;;;;;5.35;100.00;96213.44;4981048;28;20038;-72
2023/12/12 00:49:57;;;;;;;3.40;2.08;;;;;;;5.30;100.00;96207.47;4979461;28;20062;-73
2023/12/12 00:52:23;;;;;;;3.42;2.38;;;;;;;5.23;100.00;96216.19;4977263;28;20683;-73
2023/12/12 00:54:49;;;;;;;5.47;2.30;;;;;;;5.19;100.00;96219.94;4982313;28;20605;-73
2023/12/12 00:57:15;;;;;;;3.72;2.60;;;;;;;5.26;100.00;96231.00;4973608;28;20485;-73
2023/12/12 00:59:40;;;;;;;4.65;2.38;;;;;;;5.24;100.00;96216.97;4983310;28;20057;-73
2023/12/12 01:02:06;;;;;;;3.13;1.80;;;;;;;5.22;100.00;96206.47;4977268;28;20034;-73
2023/12/12 01:04:34;;;;;;;2.60;1.50;;;;;;;5.32;100.00;96213.31;4988094;28;20516;-74
2023/12/12 01:07:00;;;;;;;2.63;1.80;;;;;;;5.33;100.00;96220.31;4986499;28;20064;-74
2023/12/12 01:09:26;;;;;;;2.30;1.50;;;;;;;5.28;100.00;96220.59;4978281;28;20066;-73
2023/12/12 01:11:51;;;;;;;6.40;3.78;;;;;;;5.26;100.00;96214.72;4983237;28;20130;-73
2023/12/12 01:14:17;;;;;;;4.82;1.67;;;;;;;5.29;100.00;96214.78;4975964;28;20042;-73
2023/12/12 01:16:42;;;;;;;2.15;1.20;;;;;;;5.27;100.00;96221.72;4981924;28;20511;-73
2023/12/12 01:19:07;;;;;;;1.63;1.33;;;;;;;5.29;100.00;96220.22;4976519;28;20041;-74
2023/12/12 01:21:33;;;;;;;2.50;1.50;;;;;;;5.26;100.00;96223.66;4981738;28;20066;-73
2023/12/12 01:23:58;;;;;;;6.15;1.52;;;;;;;5.30;100.00;96234.59;4980811;28;20100;-73
2023/12/12 01:26:24;;;;;;;7.10;1.55;;;;;;;5.32;100.00;96241.25;4977424;28;20106;-73
2023/12/12 01:28:51;;;;;;;2.45;1.60;;;;;;;5.33;100.00;96239.34;4982255;28;20093;-75
2023/12/12 01:31:17;;;;;;;2.40;1.65;;;;;;;5.34;100.00;96230.84;4977655;28;20121;-74
2023/12/12 01:33:43;;;;;;;3.65;1.85;;;;;;;5.25;100.00;96232.13;4980486;28;20069;-73
2023/12/12 01:36:09;;;;;;;2.80;1.58;;;;;;;5.32;100.00;96226.91;4976712;28;20062;-73
2023/12/12 01:38:35;;;;;;;2.50;1.92;;;;;;;5.33;100.00;96234.72;4979783;28;20042;-72
2023/12/12 01:41:00;;;;;;;3.25;1.80;;;;;;;5.36;100.00;96239.44;4981963;28;20492;-73
2023/12/12 01:43:28;;;;;;;5.85;2.03;;;;;;;5.47;100.00;96244.41;4978396;28;20038;-75
2023/12/12 01:45:55;;;;;;;4.20;1.85;;;;;;;5.60;100.00;96231.56;4985314;28;20038;-73
2023/12/12 01:48:22;;;;;;;2.25;1.40;;;;;;;5.79;100.00;96239.06;4980472;28;20050;-74
2023/12/12 01:50:49;;;;;;;2.47;1.63;;;;;;;5.85;100.00;96229.53;4987898;28;20030;-74
2023/12/12 01:53:16;;;;;;;3.10;1.60;;;;;;;5.91;100.00;96226.22;4979102;28;20065;-72
2023/12/12 01:55:42;;;;;;;3.85;1.63;;;;;;;6.15;100.00;96226.47;4985470;28;20117;-72
2023/12/12 01:58:08;;;;;;;2.00;1.30;;;;;;;6.24;100.00;96225.16;4970943;28;20564;-74
2023/12/12 02:00:35;;;;;;;2.22;1.30;;;;;;;6.20;100.00;96228.94;4984238;28;20070;-73
2023/12/12 02:03:01;;;;;;;1.67;1.20;;;;;;;6.03;100.00;96219.97;4986239;28;20046;-74
2023/12/12 02:05:28;;;;;;;5.43;1.50;;;;;;;5.94;100.00;96222.81;4980877;28;20105;-73
2023/12/12 02:07:54;;;;;;;2.55;1.60;;;;;;;5.89;100.00;96205.97;4987808;28;20058;-73
2023/12/12 02:10:19;;;;;;;1.65;1.20;;;;;;;5.88;100.00;96202.44;5014605;28;20042;-72
2023/12/12 02:12:45;;;;;;;1.98;1.17;;;;;;;5.94;100.00;96213.84;4990181;28;20096;-74
2023/12/12 02:15:10;;;;;;;2.42;1.20;;;;;;;6.24;100.00;96224.38;4980542;28;20711;-73
2023/12/12 02:17:36;;;;;;;1.60;1.10;;;;;;;6.29;100.00;96208.56;4985478;28;20107;-73
2023/12/12 02:20:01;;;;;;;1.75;1.30;;;;;;;6.21;100.00;96211.47;4983764;28;20060;-73
2023/12/12 02:22:27;;;;;;;3.97;2.10;;;;;;;6.03;100.00;96202.84;4979798;28;20133;-74
2023/12/12 02:24:52;;;;;;;4.75;1.52;;;;;;;5.87;100.00;96200.88;4984924;28;20034;-73
2023/12/12 02:27:18;;;;;;;2.72;1.38;;;;;;;5.73;100.00;96193.13;4979390;28;20058;-74
2023/12/12 02:29:44;;;;;;;3.10;1.77;;;;;;;5.72;100.00;96193.47;4983856;28;20045;-74
2023/12/12 02:32:09;;;;;;;2.22;1.42;;;;;;;5.67;100.00;96199.97;4980266;28;20046;-73
2023/12/12 02:34:34;;;;;;;3.30;1.27;;;;;;;5.68;100.00;96198.03;4985886;28;20537;-73
2023/12/12 02:37:00;;;;;;;1.77;1.40;;;;;;;5.69;100.00;96202.31;4977489;28;20066;-73
2023/12/12 02:39:25;;;;;;;2.67;1.63;;;;;;;5.70;100.00;96190.31;4981706;28;20043;-73
2023/12/12 02:41:51;;;;;;;15.38;9.02;;;;;;;5.66;100.00;96186.72;4983230;28;20046;-74
2023/12/12 02:44:16;;;;;;;9.15;4.13;;;;;;;5.69;100.00;96172.41;4980172;28;20038;-74
2023/12/12 02:46:41;;;;;;;2.83;1.60;;;;;;;5.67;100.00;96164.63;4983598;28;20073;-73
2023/12/12 02:49:07;;;;;;;2.17;1.42;;;;;;;5.65;100.00;96147.88;4972100;28;20046;-73
2023/12/12 02:51:32;;;;;;;4.30;1.70;;;;;;;5.61;100.00;96163.28;4983921;28;20043;-74
2023/12/12 02:53:58;;;;;;;2.20;1.50;;;;;;;5.59;100.00;96162.06;4985569;28;20210;-74
2023/12/12 02:56:23;;;;;;;2.70;1.60;;;;;;;5.55;100.00;96168.19;4979659;28;20053;-73
2023/12/12 02:58:48;;;;;;;2.80;1.55;;;;;;;5.58;100.00;96171.34;4983704;28;20121;-73
2023/12/12 03:01:14;;;;;;;3.70;1.67;;;;;;;5.62;100.00;96170.31;4977284;28;20038;-73
2023/12/12 03:03:39;;;;;;;2.60;1.60;;;;;;;5.65;100.00;96166.88;4983825;28;20049;-74
2023/12/12 03:06:07;;;;;;;3.22;1.35;;;;;;;5.63;100.00;96171.09;4977393;28;20117;-73
2023/12/12 03:08:32;;;;;;;4.10;1.75;;;;;;;5.63;100.00;96180.03;4980367;28;20043;-73
2023/12/12 03:10:57;;;;;;;2.30;1.40;;;;;;;5.65;100.00;96179.69;4983169;28;20109;-73
2023/12/12 03:13:23;;;;;;;1.73;1.40;;;;;;;5.65;100.00;96188.63;4979655;28;20355;-74
2023/12/12 03:15:48;;;;;;;5.60;1.42;;;;;;;5.69;100.00;96183.28;4975873;28;20045;-74
2023/12/12 03:18:13;;;;;;;2.30;1.50;;;;;;;5.84;100.00;96187.97;4986181;28;20042;-74
2023/12/12 03:20:39;;;;;;;3.92;1.40;;;;;;;5.81;100.00;96174.28;4989980;28;20046;-73
2023/12/12 03:23:04;;;;;;;3.08;1.40;;;;;;;5.85;100.00;96183.31;4986657;28;20065;-73
2023/12/12 03:25:30;;;;;;;3.00;1.20;;;;;;;5.88;100.00;96169.81;4982715;28;20074;-73
2023/12/12 03:27:55;;;;;;;1.50;1.20;;;;;;;5.88;100.00;96163.63;4983219;28;20136;-74
2023/12/12 03:30:20;;;;;;;1.52;1.00;;;;;;;6.02;100.00;96164.00;4978499;28;20070;-73
2023/12/12 03:32:46;;;;;;;1.20;1.08;;;;;;;6.05;100.00;96162.50;4981613;28;20042;-74
2023/12/12 03:35:12;;;;;;;2.72;1.20;;;;;;;6.03;100.00;96154.72;4978679;28;20052;-74
2023/12/12 03:37:37;;;;;;;1.00;0.90;;;;;;;5.92;100.00;96148.19;4984157;28;20401;-73
2023/12/12 03:40:03;;;;;;;2.38;1.25;;;;;;;5.93;100.00;96153.25;4978861;28;20133;-73
2023/12/12 03:42:28;;;;;;;3.00;1.00;;;;;;;5.93;100.00;96155.97;4982470;28;20057;-74
2023/12/12 03:44:54;;;;;;;2.00;1.00;;;;;;;5.92;100.00;96151.69;4983423;28;20047;-74
2023/12/12 03:47:19;;;;;;;1.52;0.98;;;;;;;5.91;100.00;96158.25;4977181;28;20065;-73
2023/12/12 03:49:44;;;;;;;1.90;1.00;;;;;;;6.00;100.00;96166.28;4983132;28;20045;-72
2023/12/12 03:52:10;;;;;;;1.15;0.98;;;;;;;6.09;100.00;96164.19;4979306;28;20497;-72
2023/12/12 03:54:35;;;;;;;1.27;0.90;;;;;;;6.05;100.00;96166.03;4997571;28;20056;-72
2023/12/12 03:57:01;;;;;;;1.05;0.95;;;;;;;6.02;100.00;96166.72;4981275;28;20046;-73
2023/12/12 03:59:26;;;;;;;0.95;0.82;;;;;;;5.97;100.00;96152.59;4970305;28;20041;-73
2023/12/12 04:01:51;;;;;;;1.30;0.80;;;;;;;5.88;100.00;96156.25;4984709;28;20042;-72
2023/12/12 04:04:20;;;;;;;1.63;0.90;;;;;;;5.84;100.00;96158.09;4977944;28;20045;-73
2023/12/12 04:06:46;;;;;;;2.08;0.80;;;;;;;5.82;100.00;96151.44;4982891;28;20445;-73
2023/12/12 04:09:11;;;;;;;1.25;0.90;;;;;;;5.83;100.00;96155.72;4969685;28;20583;-73
2023/12/12 04:11:37;;;;;;;1.10;0.90;;;;;;;5.84;100.00;96144.50;4982343;28;20053;-72
2023/12/12 04:14:02;;;;;;;2.30;0.80;;;;;;;5.78;100.00;96140.47;4995502;28;20037;-71
2023/12/12 04:16:27;;;;;;;2.05;0.98;;;;;;;5.73;100.00;96148.88;4995243;28;20129;-74
2023/12/12 04:18:53;;;;;;;1.95;1.17;;;;;;;5.67;100.00;96151.06;4982662;28;20110;-73
2023/12/12 04:21:18;;;;;;;1.40;1.00;;;;;;;5.63;100.00;96139.28;4976986;28;20068;-72
2023/12/12 04:23:43;;;;;;;1.88;1.33;;;;;;;5.65;100.00;96152.53;4982129;28;20053;-72
2023/12/12 04:26:09;;;;;;;1.80;1.10;;;;;;;5.65;100.00;96156.03;4977043;28;20042;-70
2023/12/12 04:28:35;;;;;;;1.77;1.10;;;;;;;5.65;100.00;96158.75;4979672;28;20557;-71
2023/12/12 04:31:00;;;;;;;1.33;0.80;;;;;;;5.70;100.00;96157.72;4981645;28;20118;-73
2023/12/12 04:33:26;;;;;;;0.80;0.80;;;;;;;5.71;100.00;96145.72;4977325;28;20074;-73
2023/12/12 04:35:51;;;;;;;1.30;0.80;;;;;;;5.75;100.00;96144.66;4983738;28;20448;-73
2023/12/12 04:38:17;;;;;;;2.63;0.90;;;;;;;5.71;100.00;96148.44;4976123;28;20038;-73
2023/12/12 04:40:42;;;;;;;1.10;0.80;;;;;;;5.72;100.00;96153.50;4979927;28;20335;-74
2023/12/12 04:43:08;;;;;;;3.33;1.38;;;;;;;5.71;100.00;96154.66;4976827;28;20037;-74
2023/12/12 04:45:33;;;;;;;1.15;0.90;;;;;;;5.77;100.00;96160.63;4978821;28;20129;-72
2023/12/12 04:47:58;;;;;;;2.25;1.10;;;;;;;5.92;100.00;96167.19;4981665;28;20525;-73
2023/12/12 04:50:25;;;;;;;2.78;0.90;;;;;;;5.96;100.00;96164.59;4968785;28;20126;-72
2023/12/12 04:52:51;;;;;;;0.70;0.60;;;;;;;5.75;100.00;96149.31;4981913;28;20129;-72
2023/12/12 04:55:16;;;;;;;2.15;0.90;;;;;;;5.75;100.00;96152.81;4978484;28;20050;-73
2023/12/12 04:57:43;;;;;;;1.23;0.80;;;;;;;5.74;100.00;96161.31;4979773;28;20041;-72
2023/12/12 05:00:13;;;;;;;1.20;0.80;;;;;;;5.77;100.00;96162.56;4976378;28;20041;-73
2023/12/12 05:02:41;;;;;;;0.70;0.70;;;;;;;5.80;100.00;96159.13;4983272;28;20049;-73
2023/12/12 05:05:08;;;;;;;1.08;0.77;;;;;;;5.84;100.00;96160.81;4977300;28;20042;-71
2023/12/12 05:07:33;;;;;;;1.45;1.25;;;;;;;5.81;100.00;96149.84;4979182;28;20050;-72
2023/12/12 05:09:58;;;;;;;3.28;1.83;;;;;;;5.78;100.00;96148.63;4980968;28;20242;-72
2023/12/12 05:12:25;;;;;;;2.90;1.45;;;;;;;5.73;100.00;96146.16;4977630;28;20425;-72
2023/12/12 05:14:51;;;;;;;2.15;1.50;;;;;;;5.68;100.00;96139.03;4982177;28;20069;-72
2023/12/12 05:17:16;;;;;;;2.28;1.90;;;;;;;5.68;100.00;96144.47;4985649;28;20661;-72
2023/12/12 05:19:42;;;;;;;2.45;1.65;;;;;;;5.65;100.00;96145.16;4988801;28;20070;-72
2023/12/12 05:22:08;;;;;;;3.92;1.83;;;;;;;5.61;100.00;96148.94;4973778;28;20089;-72
2023/12/12 05:24:33;;;;;;;1.65;1.00;;;;;;;5.63;100.00;96152.09;4986767;28;20081;-72
2023/12/12 05:26:59;;;;;;;1.45;0.98;;;;;;;5.67;100.00;96152.97;4982195;28;20038;-73
2023/12/12 05:29:24;;;;;;;1.33;1.02;;;;;;;5.71;100.00;96149.22;4977584;28;20375;-72
2023/12/12 05:31:50;;;;;;;1.90;1.20;;;;;;;5.78;100.00;96153.25;4985549;28;20076;-73
2023/12/12 05:34:15;;;;;;;1.80;1.15;;;;;;;5.78;100.00;96148.63;4981635;28;20034;-73
2023/12/12 05:36:40;;;;;;;1.67;1.20;;;;;;;5.82;100.00;96146.00;4984888;28;20100;-73
2023/12/12 05:39:09;;;;;;;2.53;1.50;;;;;;;5.80;100.00;96146.34;4974125;28;20046;-72
2023/12/12 05:41:35;;;;;;;2.53;1.80;;;;;;;5.83;100.00;96132.03;4979930;28;20073;-72
2023/12/12 05:44:00;;;;;;;5.07;1.90;;;;;;;5.81;100.00;96131.59;4981504;28;20469;-72
2023/12/12 05:46:26;;;;;;;2.38;1.90;;;;;;;5.79;100.00;96139.31;4974960;28;20061;-73
2023/12/12 05:48:51;;;;;;;4.68;2.40;;;;;;;5.76;100.00;96129.13;4979769;28;20050;-72
2023/12/12 05:51:16;;;;;;;2.40;2.05;;;;;;;5.75;100.00;96122.91;4976508;28;20569;-73
2023/12/12 05:53:42;;;;;;;2.65;2.03;;;;;;;5.77;100.00;96127.22;4981370;28;20636;-72
2023/12/12 05:56:08;;;;;;;2.85;2.33;;;;;;;5.85;100.00;96126.25;4975418;28;20035;-72
2023/12/12 05:58:33;;;;;;;3.60;2.45;;;;;;;5.86;100.00;96119.69;4965382;28;20053;-72
2023/12/12 06:00:59;;;;;;;3.88;2.65;;;;;;;5.90;100.00;96121.34;4984221;28;20035;-73
2023/12/12 06:03:24;;;;;;;4.28;2.65;;;;;;;5.87;100.00;96113.91;4975732;28;20047;-72
2023/12/12 06:05:50;;;;;;;3.13;2.25;;;;;;;5.91;100.00;96114.00;4978657;28;20673;-74
2023/12/12 06:08:16;;;;;;;11.05;3.30;;;;;;;5.89;100.00;96110.84;4965438;28;20034;-71
2023/12/12 06:10:41;;;;;;;7.28;2.97;;;;;;;5.94;100.00;96118.72;4986323;28;20042;-70
2023/12/12 06:13:08;;;;;;;5.05;3.47;;;;;;;6.03;100.00;96100.34;4975421;28;20218;-72
2023/12/12 06:15:33;;;;;;;2.78;2.15;;;;;;;6.09;100.00;96100.88;4991525;28;20042;-72
2023/12/12 06:17:58;;;;;;;8.02;4.95;;;;;;;6.36;100.00;96112.00;4989915;28;20035;-71
2023/12/12 06:20:25;;;;;;;2.53;1.90;;;;;;;6.40;100.00;96107.41;4989994;28;20098;-72
2023/12/12 06:22:50;;;;;;;4.78;2.20;;;;;;;6.52;100.00;96099.16;4982025;28;20049;-72
2023/12/12 06:25:16;;;;;;;2.22;1.77;;;;;;;6.62;100.00;96095.84;4975383;28;20034;-71
2023/12/12 06:27:41;;;;;;;3.67;2.35;;;;;;;6.68;100.00;96093.63;4977881;28;20055;-72
2023/12/12 06:30:07;;;;;;;4.13;2.88;;;;;;;6.68;100.00;96086.28;4970136;28;20130;-72
2023/12/12 06:32:33;;;;;;;4.10;2.15;;;;;;;6.75;100.00;96090.28;4980678;28;20433;-71
2023/12/12 06:34:59;;;;;;;2.63;2.08;;;;;;;6.73;100.00;96095.31;4981368;28;20035;-73
2023/12/12 06:37:25;;;;;;;3.15;1.90;;;;;;;6.81;100.00;96107.94;4978742;28;20161;-72
2023/12/12 06:39:51;;;;;;;8.75;2.30;;;;;;;6.96;100.00;96109.78;4984316;28;20042;-73
2023/12/12 06:42:17;;;;;;;7.13;2.00;;;;;;;6.96;100.00;96103.56;4979832;28;20074;-72
2023/12/12 06:44:42;;;;;;;6.43;4.75;;;;;;;6.92;100.00;96089.88;4981740;28;20085;-71
2023/12/12 06:47:09;;;;;;;3.33;2.95;;;;;;;6.90;100.00;96094.91;4952759;28;20047;-72
2023/12/12 06:49:34;;;;;;;3.97;2.60;;;;;;;7.02;100.00;96085.78;4981771;28;20051;-73
2023/12/12 06:52:01;;;;;;;6.10;3.10;;;;;;;6.96;100.00;96089.94;4966109;28;20044;-71
2023/12/12 06:54:27;;;;;;;3.22;2.15;;;;;;;6.85;100.00;96095.19;4979053;28;20049;-75
2023/12/12 06:56:52;;;;;;;4.82;2.70;;;;;;;6.80;100.00;96098.19;4983829;28;20042;-74
2023/12/12 06:59:17;;;;;;;5.57;3.10;;;;;;;6.79;100.00;96097.41;4979416;28;20417;-74
2023/12/12 07:01:43;;;;;;;3.47;2.70;;;;;;;6.88;100.00;96089.81;4984380;28;20042;-74
2023/12/12 07:04:08;;;;;;;5.35;2.70;;;;;;;6.95;100.00;96099.25;4977426;28;20097;-71
2023/12/12 07:06:34;;;;;;;4.97;2.97;;;;;;;7.01;100.00;96098.63;4984918;28;20508;-71
2023/12/12 07:08:59;;;;;;;3.55;1.77;;;;;;;6.89;100.00;96099.53;4983698;28;20521;-71
2023/12/12 07:11:25;;;;;;;4.15;2.38;;;;;;;6.89;100.00;96101.47;4976445;28;20084;-72
2023/12/12 07:13:50;;;;;;;3.63;1.92;;;;;;;6.80;100.00;96103.63;4984426;28;20657;-73
2023/12/12 07:16:15;;;;;;;3.80;3.05;;;;;;;6.73;100.00;96103.47;4977792;28;20042;-72
2023/12/12 07:18:41;;;;;;;3.05;2.75;;;;;;;6.75;100.00;96099.22;4982262;28;20496;-73
2023/12/12 07:21:06;;;;;;;5.18;2.85;;;;;;;6.77;100.00;96093.44;4977713;28;20099;-72
2023/12/12 07:23:32;;;;;;;4.68;2.60;;;;;;;6.69;100.00;96096.00;4983045;28;20058;-71
2023/12/12 07:25:59;;;;;;;2.58;1.50;;;;;;;6.50;100.00;96083.16;4981526;28;20052;-71
2023/12/12 07:28:25;;;;;;;2.08;1.00;;;;;;;6.36;100.00;96090.22;4978185;28;20579;-73
2023/12/12 07:30:50;;;;;;;2.80;1.20;;;;;;;6.42;100.00;96088.81;4982176;28;20054;-70
2023/12/12 07:33:15;;;;;;;5.28;1.20;;;;;;;6.41;100.00;96084.50;4970248;28;20137;-70
2023/12/12 07:35:41;;;;;;;2.38;1.15;;;;;;;6.24;100.00;96081.00;4980737;28;20923;-71
2023/12/12 07:38:07;;;;;;;5.38;1.40;;;;;;;6.17;100.00;96083.56;4976319;28;20038;-70
2023/12/12 07:40:32;;;;;;;3.22;1.75;;;;;;;6.15;100.00;96085.84;4963945;28;20042;-70
2023/12/12 07:42:58;;;;;;;2.60;1.70;;;;;;;6.07;100.00;96089.56;4985062;28;20034;-69
2023/12/12 07:45:23;;;;;;;4.43;1.77;;;;;;;6.06;100.00;96099.63;4983345;28;20420;-71
2023/12/12 07:47:49;;;;;;;3.25;1.67;;;;;;;6.04;100.00;96101.13;4990762;28;20102;-69
2023/12/12 07:50:16;;;;;;;3.08;1.60;;;;;;;5.99;100.00;96091.31;4985046;28;20038;-70
2023/12/12 07:52:42;;;;;;;3.50;1.40;;;;;;;5.93;100.00;96095.41;4992352;28;20050;-72
2023/12/12 07:55:08;;;;;;;73.85;34.20;;;;;;;5.94;100.00;96105.13;4978247;28;20036;-70
2023/12/12 07:57:33;;;;;;;8.77;3.95;;;;;;;5.98;100.00;96108.75;4985508;28;20059;-71
2023/12/12 07:59:59;;;;;;;4.43;1.98;;;;;;;6.02;100.00;96100.69;4983017;28;20042;-71
2023/12/12 08:02:24;;;;;;;10.15;6.53;;;;;;;6.00;100.00;96106.47;4975354;28;20054;-70
2023/12/12 08:04:50;;;;;;;7.97;4.50;;;;;;;5.90;100.00;96109.69;4988618;28;20035;-70
2023/12/12 08:07:16;;;;;;;2.33;1.70;;;;;;;5.87;100.00;96107.66;4972019;28;20039;-69
2023/12/12 08:09:42;;;;;;;5.40;4.75;;;;;;;5.81;100.00;96103.63;4997531;28;20132;-72
2023/12/12 08:12:07;;;;;;;2.97;2.05;;;;;;;5.77;100.00;96100.84;4978046;28;20121;-72
2023/12/12 08:14:32;;;;;;;3.05;2.08;;;;;;;5.79;100.00;96108.63;4983209;28;20572;-69
2023/12/12 08:16:58;;;;;;;2.78;2.00;;;;;;;5.77;100.00;96102.78;4983759;28;20042;-70
2023/12/12 08:19:23;;;;;;;2.72;2.13;;;;;;;5.76;100.00;96104.69;4978819;28;20038;-69
2023/12/12 08:21:48;;;;;;;8.10;4.43;;;;;;;5.71;100.00;96100.31;4987131;28;20117;-70
2023/12/12 08:24:14;;;;;;;6.28;4.32;;;;;;;5.70;100.00;96106.88;5000385;28;20054;-69
2023/12/12 08:26:44;;;;;;;5.40;3.72;;;;;;;5.67;100.00;96101.34;4982820;28;20100;-72
2023/12/12 08:29:10;;;;;;;6.35;3.60;;;;;;;5.63;100.00;96098.53;4970619;28;20034;-70
2023/12/12 08:31:37;;;;;;;9.88;6.57;;;;;;;5.61;100.00;96095.38;4964963;28;20046;-71
2023/12/12 08:34:03;;;;;;;8.18;4.45;;;;;;;5.68;100.00;96092.06;4981431;28;20758;-71
2023/12/12 08:36:29;;;;;;;5.95;4.32;;;;;;;5.67;100.00;96083.13;4981611;28;20112;-72
2023/12/12 08:38:55;;;;;;;10.93;5.97;;;;;;;5.68;100.00;96087.41;4980974;28;20464;-72
2023/12/12 08:41:21;;;;;;;8.18;4.30;;;;;;;5.64;100.00;96085.75;4980831;28;20042;-70
2023/12/12 08:43:46;;;;;;;7.47;4.60;;;;;;;5.61;100.00;96078.28;4986062;28;20599;-72
2023/12/12 08:46:12;;;;;;;7.25;4.35;;;;;;;5.57;100.00;96075.50;4976168;28;20132;-71
2023/12/12 08:48:37;;;;;;;8.20;4.78;;;;;;;5.55;100.00;96062.25;4981906;28;20050;-71
2023/12/12 08:51:03;;;;;;;7.45;4.20;;;;;;;5.54;100.00;96057.94;4979566;28;20552;-68
2023/12/12 08:53:29;;;;;;;4.95;3.58;;;;;;;5.57;100.00;96050.25;4979188;28;20043;-70
2023/12/12 08:55:55;;;;;;;5.95;3.58;;;;;;;5.56;100.00;96049.44;4982509;28;20483;-70
2023/12/12 08:58:25;;;;;;;13.15;7.18;;;;;;;5.57;100.00;96031.25;4979151;28;20185;-70
2023/12/12 09:00:54;;;;;;;5.50;3.22;;;;;;;5.61;100.00;96043.75;4980429;28;20074;-70
2023/12/12 09:03:21;;;;;;;15.68;7.15;;;;;;;5.62;100.00;96047.25;4975931;28;20161;-70
2023/12/12 09:05:46;;;;;;;8.13;5.20;;;;;;;5.68;100.00;96045.88;4979279;28;20512;-72
2023/12/12 09:08:12;;;;;;;7.05;6.32;;;;;;;5.68;100.00;96043.94;4977089;28;20035;-71
2023/12/12 09:10:37;;;;;;;9.43;5.95;;;;;;;5.66;100.00;96046.22;4981747;28;20061;-70
2023/12/12 09:13:04;;;;;;;4.32;2.53;;;;;;;5.79;100.00;96051.56;4978605;28;20157;-68
2023/12/12 09:15:31;;;;;;;5.57;3.72;;;;;;;5.91;100.00;96052.25;4980696;28;20540;-71
2023/12/12 09:17:57;;;;;;;14.32;12.77;;;;;;;5.88;100.00;96044.81;4981085;28;20030;-70
2023/12/12 09:20:22;;;;;;;4.25;3.33;;;;;;;5.87;100.00;96040.53;4977207;28;20257;-71
2023/12/12 09:22:47;;;;;;;7.07;4.25;;;;;;;5.86;100.00;96038.16;4978509;28;20116;-71
2023/12/12 09:25:13;;;;;;;6.53;3.63;;;;;;;5.85;100.00;96031.13;4975995;28;20438;-71
2023/12/12 09:27:38;;;;;;;8.55;4.25;;;;;;;5.86;100.00;96032.72;4979993;28;20043;-70
2023/12/12 09:30:04;;;;;;;9.55;8.40;;;;;;;5.88;100.00;96025.78;4974730;28;20038;-70
2023/12/12 09:32:31;;;;;;;6.57;3.78;;;;;;;5.89;100.00;96015.72;4980280;28;20080;-71
2023/12/12 09:34:57;;;;;;;4.32;3.40;;;;;;;5.90;100.00;95992.81;4978880;28;20039;-70
2023/12/12 09:37:23;;;;;;;8.05;4.22;;;;;;;5.93;100.00;95997.56;4975708;28;20093;-71
2023/12/12 09:39:49;;;;;;;6.07;4.05;;;;;;;6.00;100.00;96005.91;4973503;28;20038;-71
2023/12/12 09:42:17;;;;;;;9.18;4.18;;;;;;;6.03;100.00;95988.91;4969512;28;20130;-70
2023/12/12 09:44:46;;;;;;;8.30;4.13;;;;;;;6.12;100.00;95985.94;4980662;28;20038;-72
2023/12/12 09:47:13;;;;;;;6.95;3.90;;;;;;;6.30;100.00;95986.34;4974900;28;20044;-71
2023/12/12 09:49:39;;;;;;;6.53;3.47;;;;;;;6.28;100.00;95981.28;4979633;28;20145;-71
2023/12/12 09:52:05;;;;;;;7.30;3.63;;;;;;;6.18;100.00;95973.69;4975387;28;20034;-71
2023/12/12 09:54:30;;;;;;;7.50;4.90;;;;;;;6.18;100.00;95962.03;4981190;28;20045;-72
2023/12/12 09:56:56;;;;;;;6.95;3.40;;;;;;;6.31;100.00;95953.34;4981148;28;20035;-72
2023/12/12 09:59:21;;;;;;;7.40;3.78;;;;;;;6.26;100.00;95947.41;4991228;28;20050;-71
2023/12/12 10:01:49;;;;;;;7.05;4.45;;;;;;;6.28;100.00;95945.94;4997151;28;20042;-71
2023/12/12 10:04:17;;;;;;;6.35;4.35;;;;;;;6.28;100.00;95943.22;4981225;28;20046;-71
2023/12/12 10:06:53;;;;;;;9.40;6.30;;;;;;;6.34;100.00;95943.72;4980998;28;20046;-72
2023/12/12 10:09:21;;;;;;;10.38;7.03;;;;;;;6.35;100.00;95937.09;4978221;28;20571;-71
2023/12/12 10:11:46;;;;;;;10.70;8.60;;;;;;;6.44;100.00;95932.25;4984010;28;20065;-70
2023/12/12 10:14:11;;;;;;;15.10;10.07;;;;;;;6.46;100.00;95926.44;4979641;28;20038;-72
2023/12/12 10:16:37;;;;;;;11.50;6.50;;;;;;;6.56;100.00;95933.25;4984590;28;20324;-71
2023/12/12 10:19:03;;;;;;;6.07;4.97;;;;;;;6.78;100.00;95918.91;4986916;28;20161;-69
2023/12/12 10:21:28;;;;;;;7.13;3.63;;;;;;;6.81;100.00;95926.34;4983615;28;20481;-72
2023/12/12 10:23:55;;;;;;;3.90;3.13;;;;;;;6.83;100.00;95917.81;4983878;28;20122;-72
2023/12/12 10:26:27;;;;;;;6.00;3.58;;;;;;;6.86;100.00;95911.63;4980527;28;20049;-71
2023/12/12 10:28:54;;;;;;;6.63;4.00;;;;;;;6.83;100.00;95926.00;5004859;28;20156;-72
2023/12/12 10:31:20;;;;;;;7.15;4.80;;;;;;;7.02;100.00;95931.41;4983503;28;20453;-71
2023/12/12 10:33:46;;;;;;;10.27;6.43;;;;;;;6.85;100.00;95915.53;4983211;28;20042;-72
2023/12/12 10:36:11;;;;;;;10.63;7.15;;;;;;;7.06;100.00;95917.84;4979222;28;20042;-70
2023/12/12 10:38:40;;;;;;;9.98;5.63;;;;;;;7.07;100.00;95906.56;4983946;28;20044;-71
2023/12/12 10:41:10;;;;;;;9.18;4.82;;;;;;;6.90;100.00;95901.63;4979320;28;20041;-70
2023/12/12 10:43:39;;;;;;;5.82;3.88;;;;;;;7.02;100.00;95900.63;4984776;28;20120;-71
2023/12/12 10:46:06;;;;;;;8.43;5.83;;;;;;;7.13;100.00;95900.81;4979227;28;20093;-69
2023/12/12 10:48:31;;;;;;;11.75;10.60;;;;;;;7.05;100.00;95899.94;4982287;28;20081;-70
2023/12/12 10:50:59;;;;;;;8.68;6.20;;;;;;;7.19;100.00;95905.59;4982781;28;20047;-72
2023/12/12 10:53:27;;;;;;;4.10;2.80;;;;;;;7.23;100.00;95909.16;4978577;28;20137;-71
2023/12/12 10:55:55;;;;;;;5.50;4.70;;;;;;;7.08;100.00;95905.44;4980595;28;20457;-71
2023/12/12 10:58:21;;;;;;;5.57;3.47;;;;;;;7.02;100.00;95901.44;4973750;28;20039;-70
2023/12/12 11:00:48;;;;;;;6.28;3.20;;;;;;;7.10;100.00;95907.78;4983242;28;20038;-71
2023/12/12 11:03:13;;;;;;;4.82;2.80;;;;;;;7.14;100.00;95897.75;4978914;28;20034;-71
2023/12/12 11:05:39;;;;;;;4.82;2.33;;;;;;;7.19;100.00;95902.88;4980340;28;20060;-70
2023/12/12 11:08:07;;;;;;;3.05;2.40;;;;;;;7.10;100.00;95894.19;4978842;28;20035;-70
2023/12/12 11:10:33;;;;;;;3.47;2.20;;;;;;;7.01;100.00;95888.97;4983200;28;20046;-72
2023/12/12 11:13:01;;;;;;;3.40;2.30;;;;;;;7.03;100.00;95889.38;4983382;28;20073;-71
2023/12/12 11:15:28;;;;;;;6.63;4.90;;;;;;;7.18;100.00;95886.91;4978446;28;20042;-71
2023/12/12 11:17:53;;;;;;;6.82;2.15;;;;;;;7.20;100.00;95879.16;4983033;28;20113;-71
2023/12/12 11:20:19;;;;;;;5.80;2.63;;;;;;;7.20;100.00;95871.78;4977001;28;20453;-70
2023/12/12 11:22:48;;;;;;;5.20;3.10;;;;;;;7.18;100.00;95873.28;4982564;28;20045;-70
2023/12/12 11:25:19;;;;;;;6.47;2.83;;;;;;;7.35;100.00;95877.47;4979483;28;20035;-71